createdAt,value
2023-04-09T00:00:36.049Z,6.90
2023-04-09T00:01:36.022Z,6.90
2023-04-09T00:02:36.117Z,6.89
2023-04-09T00:03:36.172Z,6.94
2023-04-09T00:04:35.973Z,6.93
2023-04-09T00:05:35.940Z,6.91
2023-04-09T00:06:35.890Z,6.94
2023-04-09T00:07:35.869Z,6.86
2023-04-09T00:08:36.861Z,6.75
2023-04-09T00:09:35.856Z,6.91
2023-04-09T00:10:35.857Z,6.93
2023-04-09T00:11:35.814Z,6.91
2023-04-09T00:12:35.884Z,6.89
2023-04-09T00:13:39.518Z,7.01
2023-04-09T00:14:36.766Z,6.91
2023-04-09T00:15:35.816Z,6.87
2023-04-09T00:16:35.757Z,6.89
2023-04-09T00:17:35.745Z,6.78
2023-04-09T00:18:35.722Z,6.86
2023-04-09T00:19:35.670Z,6.73
2023-04-09T00:20:35.678Z,6.69
2023-04-09T00:21:35.723Z,6.89
2023-04-09T00:22:35.625Z,6.71
2023-04-09T00:23:35.608Z,6.87
2023-04-09T00:24:35.592Z,6.83
2023-04-09T00:25:35.626Z,6.81
2023-04-09T00:26:35.588Z,6.78
2023-04-09T00:27:35.545Z,6.69
2023-04-09T00:28:35.536Z,6.75
2023-04-09T00:29:35.505Z,6.64
2023-04-09T00:30:35.545Z,6.68
2023-04-09T00:31:35.590Z,6.65
2023-04-09T00:32:35.544Z,6.64
2023-04-09T00:33:35.445Z,6.65
2023-04-09T00:34:35.424Z,6.57
2023-04-09T00:35:35.454Z,6.55
2023-04-09T00:36:35.401Z,6.60
2023-04-09T00:37:35.363Z,6.61
2023-04-09T00:38:35.368Z,6.71
2023-04-09T00:39:35.338Z,6.65
2023-04-09T00:40:35.348Z,6.72
2023-04-09T00:41:35.312Z,6.64
2023-04-09T00:42:35.295Z,6.69
2023-04-09T00:43:35.288Z,6.71
2023-04-09T00:44:35.243Z,6.69
2023-04-09T00:45:35.309Z,6.72
2023-04-09T00:46:35.215Z,6.81
2023-04-09T00:47:35.289Z,6.76
2023-04-09T00:48:35.181Z,6.73
2023-04-09T00:49:35.162Z,6.72
2023-04-09T00:50:35.212Z,6.75
2023-04-09T00:51:35.146Z,6.71
2023-04-09T00:52:35.106Z,6.75
2023-04-09T00:53:35.098Z,6.71
2023-04-09T00:54:35.095Z,6.75
2023-04-09T00:55:35.094Z,6.61
2023-04-09T00:56:36.037Z,6.63
2023-04-09T00:57:35.027Z,6.65
2023-04-09T00:58:35.013Z,6.63
2023-04-09T00:59:34.987Z,6.68
2023-04-09T01:00:35.002Z,6.68
2023-04-09T01:01:34.978Z,6.68
2023-04-09T01:02:35.141Z,6.64
2023-04-09T01:03:35.033Z,6.82
2023-04-09T01:04:34.920Z,6.79
2023-04-09T01:05:34.941Z,6.72
2023-04-09T01:06:34.877Z,6.72
2023-04-09T01:07:34.848Z,6.71
2023-04-09T01:08:34.841Z,6.73
2023-04-09T01:09:34.813Z,6.72
2023-04-09T01:10:34.837Z,6.64
2023-04-09T01:11:34.798Z,6.65
2023-04-09T01:12:34.763Z,6.69
2023-04-09T01:13:34.761Z,6.60
2023-04-09T01:14:34.729Z,6.69
2023-04-09T01:15:34.758Z,6.72
2023-04-09T01:16:34.710Z,6.63
2023-04-09T01:17:34.721Z,6.53
2023-04-09T01:18:34.657Z,6.53
2023-04-09T01:19:34.645Z,6.53
2023-04-09T01:20:34.672Z,6.53
2023-04-09T01:21:34.609Z,6.51
2023-04-09T01:22:34.627Z,6.58
2023-04-09T01:23:34.586Z,6.54
2023-04-09T01:24:34.554Z,6.61
2023-04-09T01:25:34.537Z,6.58
2023-04-09T01:26:34.549Z,6.65
2023-04-09T01:27:34.504Z,6.72
2023-04-09T01:28:34.491Z,6.61
2023-04-09T01:29:34.482Z,6.68
2023-04-09T01:30:34.491Z,6.71
2023-04-09T01:31:34.478Z,6.71
2023-04-09T01:32:34.460Z,6.65
2023-04-09T01:33:34.402Z,6.71
2023-04-09T01:34:34.385Z,6.69
2023-04-09T01:35:34.386Z,6.69
2023-04-09T01:36:34.386Z,6.72
2023-04-09T01:37:34.326Z,6.76
2023-04-09T01:38:34.323Z,6.65
2023-04-09T01:39:34.300Z,6.72
2023-04-09T01:40:34.281Z,6.64
2023-04-09T01:41:34.307Z,6.64
2023-04-09T01:42:34.242Z,6.68
2023-04-09T01:43:34.245Z,6.73
2023-04-09T01:44:34.209Z,6.65
2023-04-09T01:45:35.191Z,6.63
2023-04-09T01:46:34.253Z,6.71
2023-04-09T01:47:34.212Z,6.73
2023-04-09T01:48:34.149Z,6.65
2023-04-09T01:49:34.133Z,6.71
2023-04-09T01:50:34.115Z,6.73
2023-04-09T01:51:34.115Z,6.61
2023-04-09T01:52:34.062Z,6.75
2023-04-09T01:53:35.070Z,6.73
2023-04-09T01:54:34.036Z,6.76
2023-04-09T01:55:34.012Z,6.78
2023-04-09T01:56:35.047Z,6.72
2023-04-09T01:57:33.995Z,6.65
2023-04-09T01:58:33.969Z,6.61
2023-04-09T01:59:33.950Z,6.68
2023-04-09T02:00:33.943Z,6.71
2023-04-09T02:01:34.009Z,6.60
2023-04-09T02:02:34.025Z,6.65
2023-04-09T02:03:34.088Z,6.68
2023-04-09T02:04:33.874Z,6.61
2023-04-09T02:05:33.852Z,6.68
2023-04-09T02:06:33.866Z,6.65
2023-04-09T02:07:33.828Z,6.57
2023-04-09T02:08:33.812Z,6.63
2023-04-09T02:09:33.804Z,6.61
2023-04-09T02:10:33.767Z,6.53
2023-04-09T02:11:33.782Z,6.50
2023-04-09T02:12:33.729Z,6.40
2023-04-09T02:13:33.728Z,6.54
2023-04-09T02:14:33.706Z,6.43
2023-04-09T02:15:33.715Z,6.43
2023-04-09T02:16:33.702Z,6.51
2023-04-09T02:17:33.684Z,6.45
2023-04-09T02:18:33.633Z,6.57
2023-04-09T02:19:33.619Z,6.45
2023-04-09T02:20:33.606Z,6.32
2023-04-09T02:21:33.609Z,6.36
2023-04-09T02:22:33.607Z,6.35
2023-04-09T02:23:33.669Z,6.35
2023-04-09T02:24:33.515Z,6.33
2023-04-09T02:25:33.510Z,6.38
2023-04-09T02:26:33.536Z,6.30
2023-04-09T02:27:33.475Z,6.33
2023-04-09T02:28:33.461Z,6.33
2023-04-09T02:29:33.434Z,6.24
2023-04-09T02:30:33.432Z,6.21
2023-04-09T02:31:33.526Z,6.17
2023-04-09T02:32:33.392Z,6.17
2023-04-09T02:33:33.361Z,6.16
2023-04-09T02:34:33.367Z,6.13
2023-04-09T02:35:33.373Z,6.11
2023-04-09T02:36:33.361Z,6.06
2023-04-09T02:37:33.290Z,6.06
2023-04-09T02:38:33.417Z,6.13
2023-04-09T02:39:33.265Z,6.06
2023-04-09T02:40:33.252Z,5.92
2023-04-09T02:41:33.264Z,5.96
2023-04-09T02:42:33.229Z,5.93
2023-04-09T02:43:33.189Z,5.93
2023-04-09T02:44:33.176Z,5.85
2023-04-09T02:45:33.168Z,6.02
2023-04-09T02:46:33.225Z,5.98
2023-04-09T02:47:33.176Z,5.96
2023-04-09T02:48:33.119Z,5.98
2023-04-09T02:49:33.110Z,5.93
2023-04-09T02:50:33.067Z,5.99
2023-04-09T02:51:33.088Z,5.99
2023-04-09T02:52:33.034Z,6.01
2023-04-09T02:53:33.029Z,5.98
2023-04-09T02:54:33.002Z,5.87
2023-04-09T02:55:32.994Z,5.96
2023-04-09T02:56:33.002Z,5.92
2023-04-09T02:57:33.665Z,5.84
2023-04-09T02:58:32.934Z,5.78
2023-04-09T02:59:32.954Z,5.73
2023-04-09T03:00:33.034Z,5.77
2023-04-09T03:01:32.962Z,5.77
2023-04-09T03:02:32.910Z,5.84
2023-04-09T03:03:32.886Z,5.88
2023-04-09T03:04:32.826Z,5.98
2023-04-09T03:05:32.817Z,5.98
2023-04-09T03:06:32.824Z,5.98
2023-04-09T03:07:32.783Z,6.06
2023-04-09T03:08:32.753Z,6.02
2023-04-09T03:09:32.743Z,5.95
2023-04-09T03:10:32.718Z,6.03
2023-04-09T03:11:32.732Z,6.03
2023-04-09T03:12:32.683Z,6.05
2023-04-09T03:13:32.665Z,6.05
2023-04-09T03:14:33.744Z,6.08
2023-04-09T03:15:32.640Z,6.08
2023-04-09T03:16:32.719Z,6.05
2023-04-09T03:17:32.682Z,6.17
2023-04-09T03:18:32.619Z,6.14
2023-04-09T03:19:32.565Z,6.25
2023-04-09T03:20:32.636Z,6.17
2023-04-09T03:21:32.572Z,6.24
2023-04-09T03:22:32.531Z,6.30
2023-04-09T03:23:32.489Z,6.24
2023-04-09T03:24:33.496Z,6.17
2023-04-09T03:25:32.476Z,6.30
2023-04-09T03:26:32.490Z,6.24
2023-04-09T03:27:32.438Z,6.30
2023-04-09T03:28:32.425Z,6.25
2023-04-09T03:29:32.384Z,6.28
2023-04-09T03:30:32.378Z,6.32
2023-04-09T03:31:32.394Z,6.30
2023-04-09T03:32:32.354Z,6.42
2023-04-09T03:33:32.350Z,6.36
2023-04-09T03:34:32.313Z,6.30
2023-04-09T03:35:32.321Z,6.14
2023-04-09T03:36:32.317Z,6.27
2023-04-09T03:37:32.249Z,6.20
2023-04-09T03:38:32.227Z,6.27
2023-04-09T03:39:32.219Z,6.21
2023-04-09T03:40:32.205Z,6.30
2023-04-09T03:41:32.213Z,6.25
2023-04-09T03:42:32.243Z,6.27
2023-04-09T03:43:32.143Z,6.28
2023-04-09T03:44:32.118Z,6.20
2023-04-09T03:45:32.112Z,6.33
2023-04-09T03:46:32.164Z,6.32
2023-04-09T03:47:32.100Z,6.27
2023-04-09T03:48:32.038Z,6.24
2023-04-09T03:49:33.051Z,6.25
2023-04-09T03:50:32.016Z,6.27
2023-04-09T03:51:32.082Z,6.16
2023-04-09T03:52:31.993Z,6.32
2023-04-09T03:53:31.969Z,6.24
2023-04-09T03:54:31.947Z,6.27
2023-04-09T03:55:57.817Z,6.21
2023-04-09T03:56:31.949Z,6.27
2023-04-09T03:57:31.900Z,6.27
2023-04-09T03:58:31.900Z,6.35
2023-04-09T03:59:31.876Z,6.21
2023-04-09T04:00:31.854Z,6.16
2023-04-09T04:01:31.890Z,6.39
2023-04-09T04:02:31.925Z,6.39
2023-04-09T04:03:31.967Z,6.32
2023-04-09T04:04:31.993Z,6.32
2023-04-09T04:05:31.763Z,6.27
2023-04-09T04:06:31.767Z,6.17
2023-04-09T04:07:31.730Z,6.21
2023-04-09T04:08:31.712Z,6.19
2023-04-09T04:09:31.702Z,6.27
2023-04-09T04:10:31.692Z,6.24
2023-04-09T04:11:31.686Z,6.28
2023-04-09T04:12:31.687Z,6.27
2023-04-09T04:13:31.722Z,6.27
2023-04-09T04:14:31.607Z,6.24
2023-04-09T04:15:31.605Z,6.25
2023-04-09T04:16:31.649Z,6.30
2023-04-09T04:17:31.575Z,6.28
2023-04-09T04:18:31.542Z,6.21
2023-04-09T04:19:31.545Z,6.27
2023-04-09T04:20:31.509Z,6.27
2023-04-09T04:21:31.546Z,6.28
2023-04-09T04:22:31.473Z,6.27
2023-04-09T04:23:31.460Z,6.25
2023-04-09T04:24:31.452Z,6.21
2023-04-09T04:25:31.426Z,6.24
2023-04-09T04:26:31.451Z,6.21
2023-04-09T04:27:31.396Z,6.24
2023-04-09T04:28:31.420Z,6.25
2023-04-09T04:29:31.353Z,6.11
2023-04-09T04:30:31.345Z,6.16
2023-04-09T04:31:31.344Z,6.14
2023-04-09T04:32:31.383Z,6.10
2023-04-09T04:33:31.294Z,6.10
2023-04-09T04:34:31.274Z,6.17
2023-04-09T04:35:31.285Z,6.27
2023-04-09T04:36:31.237Z,6.20
2023-04-09T04:37:31.250Z,6.13
2023-04-09T04:38:31.203Z,6.11
2023-04-09T04:39:31.217Z,6.19
2023-04-09T04:40:31.165Z,6.21
2023-04-09T04:41:31.175Z,6.16
2023-04-09T04:42:31.168Z,6.10
2023-04-09T04:43:31.122Z,6.14
2023-04-09T04:44:31.101Z,6.20
2023-04-09T04:45:31.114Z,6.24
2023-04-09T04:46:31.072Z,6.25
2023-04-09T04:47:31.117Z,6.21
2023-04-09T04:48:31.044Z,6.16
2023-04-09T04:49:31.035Z,6.21
2023-04-09T04:50:30.994Z,6.16
2023-04-09T04:51:30.975Z,6.20
2023-04-09T04:52:30.989Z,6.20
2023-04-09T04:53:30.938Z,6.01
2023-04-09T04:54:30.942Z,6.24
2023-04-09T04:55:30.919Z,6.08
2023-04-09T04:56:30.912Z,6.14
2023-04-09T04:57:30.925Z,6.25
2023-04-09T04:58:30.882Z,6.10
2023-04-09T04:59:30.841Z,6.21
2023-04-09T05:00:30.832Z,6.16
2023-04-09T05:01:30.919Z,6.20
2023-04-09T05:02:30.909Z,6.16
2023-04-09T05:03:30.891Z,6.20
2023-04-09T05:04:30.761Z,6.11
2023-04-09T05:05:30.735Z,6.19
2023-04-09T05:06:30.721Z,6.21
2023-04-09T05:07:30.741Z,6.10
2023-04-09T05:08:30.687Z,6.14
2023-04-09T05:09:30.664Z,6.19
2023-04-09T05:10:30.652Z,6.14
2023-04-09T05:11:30.631Z,6.05
2023-04-09T05:12:30.652Z,6.03
2023-04-09T05:13:31.600Z,6.13
2023-04-09T05:14:30.578Z,6.11
2023-04-09T05:15:30.575Z,6.06
2023-04-09T05:16:30.548Z,6.16
2023-04-09T05:17:30.600Z,6.17
2023-04-09T05:18:30.516Z,6.16
2023-04-09T05:19:30.505Z,6.19
2023-04-09T05:20:30.475Z,6.19
2023-04-09T05:21:30.466Z,6.30
2023-04-09T05:22:30.481Z,6.25
2023-04-09T05:23:30.428Z,6.17
2023-04-09T05:24:30.405Z,6.10
2023-04-09T05:25:30.409Z,6.24
2023-04-09T05:26:30.367Z,6.32
2023-04-09T05:27:30.408Z,6.39
2023-04-09T05:28:30.343Z,6.32
2023-04-09T05:29:30.318Z,6.33
2023-04-09T05:30:30.337Z,6.42
2023-04-09T05:31:30.281Z,6.35
2023-04-09T05:32:30.304Z,6.38
2023-04-09T05:33:30.252Z,6.38
2023-04-09T05:34:30.239Z,6.40
2023-04-09T05:35:30.213Z,6.43
2023-04-09T05:36:30.223Z,6.46
2023-04-09T05:37:30.207Z,6.42
2023-04-09T05:38:30.174Z,6.53
2023-04-09T05:39:30.147Z,6.54
2023-04-09T05:40:30.137Z,6.36
2023-04-09T05:41:30.119Z,6.46
2023-04-09T05:42:30.126Z,6.46
2023-04-09T05:43:30.080Z,6.51
2023-04-09T05:44:30.069Z,6.58
2023-04-09T05:45:30.057Z,6.58
2023-04-09T05:46:30.042Z,6.54
2023-04-09T05:47:30.067Z,6.58
2023-04-09T05:48:30.018Z,6.55
2023-04-09T05:49:29.978Z,6.63
2023-04-09T05:50:29.962Z,6.57
2023-04-09T05:51:29.976Z,6.71
2023-04-09T05:52:29.971Z,6.72
2023-04-09T05:53:29.928Z,6.78
2023-04-09T05:54:29.898Z,6.65
2023-04-09T05:55:29.884Z,6.73
2023-04-09T05:56:29.859Z,6.68
2023-04-09T05:57:29.876Z,6.65
2023-04-09T05:58:29.841Z,6.64
2023-04-09T05:59:29.807Z,6.78
2023-04-09T06:00:29.900Z,6.78
2023-04-09T06:01:29.798Z,6.87
2023-04-09T06:02:29.903Z,7.00
2023-04-09T06:03:29.844Z,6.89
2023-04-09T06:04:29.740Z,6.97
2023-04-09T06:05:29.697Z,7.08
2023-04-09T06:06:29.718Z,7.08
2023-04-09T06:07:29.714Z,7.08
2023-04-09T06:08:29.662Z,7.16
2023-04-09T06:09:29.632Z,7.23
2023-04-09T06:10:29.639Z,7.24
2023-04-09T06:11:29.595Z,7.24
2023-04-09T06:12:29.615Z,7.21
2023-04-09T06:13:29.561Z,7.36
2023-04-09T06:14:29.562Z,7.41
2023-04-09T06:15:29.568Z,7.30
2023-04-09T06:16:29.522Z,7.36
2023-04-09T06:17:29.565Z,7.42
2023-04-09T06:18:29.479Z,7.47
2023-04-09T06:19:29.461Z,7.48
2023-04-09T06:20:29.461Z,7.54
2023-04-09T06:21:29.453Z,7.60
2023-04-09T06:22:29.505Z,7.69
2023-04-09T06:23:29.393Z,7.70
2023-04-09T06:24:29.393Z,7.84
2023-04-09T06:25:29.381Z,7.77
2023-04-09T06:26:29.467Z,7.92
2023-04-09T06:27:29.367Z,8.00
2023-04-09T06:28:29.307Z,8.04
2023-04-09T06:29:29.300Z,8.06
2023-04-09T06:30:29.273Z,8.02
2023-04-09T06:31:29.341Z,8.17
2023-04-09T06:32:29.771Z,8.17
2023-04-09T06:33:29.234Z,8.28
2023-04-09T06:34:29.212Z,8.27
2023-04-09T06:35:29.209Z,8.39
2023-04-09T06:36:29.181Z,8.39
2023-04-09T06:37:29.181Z,8.43
2023-04-09T06:38:29.140Z,8.52
2023-04-09T06:39:29.133Z,8.57
2023-04-09T06:40:29.091Z,8.46
2023-04-09T06:41:29.095Z,8.54
2023-04-09T06:42:29.088Z,8.67
2023-04-09T06:43:29.055Z,8.68
2023-04-09T06:44:29.040Z,8.79
2023-04-09T06:45:29.018Z,8.86
2023-04-09T06:46:29.099Z,8.91
2023-04-09T06:47:29.016Z,8.89
2023-04-09T06:48:28.970Z,9.00
2023-04-09T06:49:28.955Z,9.15
2023-04-09T06:50:28.933Z,9.22
2023-04-09T06:51:28.905Z,9.40
2023-04-09T06:52:28.945Z,9.45
2023-04-09T06:53:28.977Z,9.67
2023-04-09T06:54:28.878Z,9.71
2023-04-09T06:55:28.838Z,9.86
2023-04-09T06:56:28.827Z,9.92
2023-04-09T06:57:28.842Z,10.17
2023-04-09T06:58:28.785Z,10.28
2023-04-09T06:59:28.938Z,10.52
2023-04-09T07:00:28.758Z,10.52
2023-04-09T07:01:28.783Z,10.58
2023-04-09T07:02:28.944Z,10.63
2023-04-09T07:03:28.812Z,10.88
2023-04-09T07:04:28.733Z,11.01
2023-04-09T07:05:28.681Z,11.06
2023-04-09T07:06:28.864Z,11.35
2023-04-09T07:07:28.672Z,11.51
2023-04-09T07:08:28.628Z,11.81
2023-04-09T07:09:28.598Z,12.89
2023-04-09T07:10:28.601Z,14.17
2023-04-09T07:11:28.563Z,15.19
2023-04-09T07:12:28.583Z,15.81
2023-04-09T07:14:29.528Z,16.92
2023-04-09T07:15:28.506Z,17.45
2023-04-09T07:16:28.492Z,17.74
2023-04-09T07:17:28.539Z,18.29
2023-04-09T07:18:28.462Z,18.82
2023-04-09T07:19:28.433Z,19.20
2023-04-09T07:20:28.429Z,18.82
2023-04-09T07:21:28.388Z,18.50
2023-04-09T07:22:28.428Z,18.51
2023-04-09T07:23:28.418Z,17.76
2023-04-09T07:24:28.670Z,17.27
2023-04-09T07:25:28.343Z,16.67
2023-04-09T07:26:28.429Z,16.44
2023-04-09T07:27:28.322Z,16.17
2023-04-09T07:28:28.306Z,15.91
2023-04-09T07:29:28.254Z,15.43
2023-04-09T07:30:28.447Z,15.19
2023-04-09T07:31:28.250Z,15.07
2023-04-09T07:32:28.629Z,14.87
2023-04-09T07:33:28.192Z,15.00
2023-04-09T07:34:29.183Z,16.04
2023-04-09T07:35:28.161Z,16.85
2023-04-09T07:36:28.128Z,17.47
2023-04-09T07:37:28.163Z,18.14
2023-04-09T07:38:28.091Z,18.66
2023-04-09T07:39:28.085Z,19.24
2023-04-09T07:40:28.065Z,19.82
2023-04-09T07:41:28.051Z,20.51
2023-04-09T07:42:28.083Z,20.71
2023-04-09T07:43:28.022Z,21.11
2023-04-09T07:44:27.990Z,21.43
2023-04-09T07:45:27.973Z,21.64
2023-04-09T07:46:28.065Z,21.96
2023-04-09T07:47:28.104Z,22.04
2023-04-09T07:48:27.945Z,22.05
2023-04-09T07:49:27.912Z,22.12
2023-04-09T07:50:28.007Z,22.27
2023-04-09T07:51:27.914Z,22.59
2023-04-09T07:52:27.915Z,22.56
2023-04-09T07:53:27.876Z,22.63
2023-04-09T07:54:27.832Z,22.81
2023-04-09T07:55:27.813Z,22.85
2023-04-09T07:56:27.815Z,22.99
2023-04-09T07:57:27.791Z,23.07
2023-04-09T07:58:27.873Z,23.11
2023-04-09T07:59:27.787Z,23.22
2023-04-09T08:00:27.897Z,23.22
2023-04-09T08:01:27.735Z,23.29
2023-04-09T08:02:27.819Z,23.60
2023-04-09T08:03:27.998Z,22.39
2023-04-09T08:04:27.823Z,21.08
2023-04-09T08:05:27.655Z,20.04
2023-04-09T08:06:27.640Z,19.01
2023-04-09T08:07:27.634Z,18.20
2023-04-09T08:08:27.639Z,17.68
2023-04-09T08:09:27.612Z,18.14
2023-04-09T08:10:27.583Z,19.32
2023-04-09T08:11:27.575Z,20.16
2023-04-09T08:12:27.554Z,20.61
2023-04-09T08:13:27.574Z,20.00
2023-04-09T08:14:27.534Z,20.02
2023-04-09T08:15:27.511Z,19.60
2023-04-09T08:16:27.505Z,18.99
2023-04-09T08:17:27.520Z,18.50
2023-04-09T08:18:27.496Z,17.92
2023-04-09T08:19:27.470Z,17.25
2023-04-09T08:20:27.412Z,16.77
2023-04-09T08:21:27.416Z,16.30
2023-04-09T08:22:27.468Z,15.85
2023-04-09T08:23:27.395Z,15.48
2023-04-09T08:24:27.397Z,15.19
2023-04-09T08:25:27.346Z,14.98
2023-04-09T08:26:28.325Z,14.90
2023-04-09T08:27:27.300Z,14.82
2023-04-09T08:28:27.319Z,14.82
2023-04-09T08:29:27.264Z,14.63
2023-04-09T08:30:28.256Z,14.49
2023-04-09T08:31:27.295Z,14.41
2023-04-09T08:32:27.373Z,14.38
2023-04-09T08:33:27.232Z,14.30
2023-04-09T08:34:27.189Z,14.35
2023-04-09T08:35:27.192Z,14.36
2023-04-09T08:36:27.158Z,14.35
2023-04-09T08:37:27.220Z,14.30
2023-04-09T08:38:27.157Z,14.26
2023-04-09T08:39:27.108Z,14.16
2023-04-09T08:40:27.113Z,14.17
2023-04-09T08:41:27.105Z,14.20
2023-04-09T08:42:27.048Z,14.12
2023-04-09T08:43:41.850Z,13.96
2023-04-09T08:44:29.030Z,14.05
2023-04-09T08:45:27.011Z,14.11
2023-04-09T08:46:26.996Z,14.08
2023-04-09T08:47:27.016Z,14.04
2023-04-09T08:48:27.051Z,14.16
2023-04-09T08:49:26.935Z,14.85
2023-04-09T08:50:26.918Z,15.38
2023-04-09T08:51:26.901Z,15.67
2023-04-09T08:52:26.920Z,15.78
2023-04-09T08:53:26.910Z,15.66
2023-04-09T08:54:26.901Z,15.67
2023-04-09T08:55:26.843Z,15.43
2023-04-09T08:56:26.857Z,15.35
2023-04-09T08:57:26.797Z,15.19
2023-04-09T08:58:26.813Z,15.30
2023-04-09T08:59:26.761Z,15.44
2023-04-09T09:00:26.767Z,17.15
2023-04-09T09:01:26.990Z,17.58
2023-04-09T09:02:26.790Z,17.36
2023-04-09T09:03:26.836Z,17.14
2023-04-09T09:04:26.780Z,16.92
2023-04-09T09:05:26.660Z,16.62
2023-04-09T09:06:26.660Z,16.45
2023-04-09T09:07:26.621Z,16.81
2023-04-09T09:08:26.665Z,18.05
2023-04-09T09:09:26.626Z,19.39
2023-04-09T09:10:26.573Z,20.66
2023-04-09T09:11:26.569Z,21.74
2023-04-09T09:12:27.017Z,22.49
2023-04-09T09:13:26.558Z,23.42
2023-04-09T09:14:26.527Z,23.14
2023-04-09T09:15:26.497Z,23.23
2023-04-09T09:16:26.484Z,22.82
2023-04-09T09:17:26.477Z,21.90
2023-04-09T09:18:26.467Z,22.51
2023-04-09T09:19:26.609Z,22.01
2023-04-09T09:20:26.406Z,21.40
2023-04-09T09:21:26.388Z,20.83
2023-04-09T09:22:26.386Z,20.34
2023-04-09T09:23:26.395Z,19.90
2023-04-09T09:24:26.361Z,19.46
2023-04-09T09:25:26.824Z,19.09
2023-04-09T09:26:26.316Z,18.71
2023-04-09T09:27:26.291Z,18.65
2023-04-09T09:28:26.312Z,19.70
2023-04-09T09:29:26.258Z,19.76
2023-04-09T09:30:26.253Z,20.27
2023-04-09T09:31:26.380Z,19.64
2023-04-09T09:32:26.278Z,19.20
2023-04-09T09:33:26.225Z,18.79
2023-04-09T09:34:26.223Z,18.38
2023-04-09T09:35:26.200Z,17.87
2023-04-09T09:36:26.147Z,17.54
2023-04-09T09:37:26.139Z,17.12
2023-04-09T09:38:26.151Z,16.80
2023-04-09T09:39:26.105Z,16.59
2023-04-09T09:40:26.084Z,16.51
2023-04-09T09:41:26.131Z,16.27
2023-04-09T09:42:26.061Z,16.26
2023-04-09T09:43:26.081Z,16.30
2023-04-09T09:44:26.047Z,16.26
2023-04-09T09:45:26.012Z,16.22
2023-04-09T09:46:26.027Z,16.04
2023-04-09T09:47:27.043Z,16.06
2023-04-09T09:48:28.341Z,15.89
2023-04-09T09:49:26.031Z,15.92
2023-04-09T09:50:25.923Z,15.91
2023-04-09T09:51:25.902Z,15.92
2023-04-09T09:52:25.894Z,16.13
2023-04-09T09:53:25.905Z,17.06
2023-04-09T09:54:25.891Z,17.15
2023-04-09T09:55:25.854Z,17.05
2023-04-09T09:56:53.205Z,17.10
2023-04-09T09:57:25.823Z,17.49
2023-04-09T09:58:25.832Z,18.13
2023-04-09T09:59:25.840Z,18.35
2023-04-09T10:00:25.774Z,17.94
2023-04-09T10:01:25.762Z,17.81
2023-04-09T10:02:25.785Z,17.70
2023-04-09T10:03:25.803Z,17.55
2023-04-09T10:04:25.781Z,17.42
2023-04-09T10:05:25.684Z,17.98
2023-04-09T10:06:25.686Z,19.09
2023-04-09T10:07:25.643Z,20.20
2023-04-09T10:08:25.655Z,21.09
2023-04-09T10:09:25.629Z,21.86
2023-04-09T10:10:25.599Z,21.00
2023-04-09T10:11:25.600Z,20.44
2023-04-09T10:12:25.560Z,19.21
2023-04-09T10:13:25.573Z,18.64
2023-04-09T10:14:25.552Z,18.05
2023-04-09T10:15:25.562Z,17.60
2023-04-09T10:16:25.529Z,17.20
2023-04-09T10:17:25.524Z,16.98
2023-04-09T10:18:25.496Z,16.48
2023-04-09T10:19:25.462Z,16.16
2023-04-09T10:20:25.426Z,15.60
2023-04-09T10:21:25.410Z,15.35
2023-04-09T10:22:25.408Z,15.03
2023-04-09T10:23:25.424Z,15.00
2023-04-09T10:24:25.385Z,14.36
2023-04-09T10:25:25.340Z,14.39
2023-04-09T10:26:25.353Z,14.20
2023-04-09T10:27:25.306Z,14.04
2023-04-09T10:28:25.348Z,13.55
2023-04-09T10:29:26.279Z,13.43
2023-04-09T10:30:26.249Z,13.27
2023-04-09T10:31:25.287Z,13.31
2023-04-09T10:32:25.302Z,13.29
2023-04-09T10:33:25.230Z,13.31
2023-04-09T10:34:25.186Z,13.19
2023-04-09T10:35:26.189Z,13.14
2023-04-09T10:36:25.204Z,13.09
2023-04-09T10:37:25.148Z,12.99
2023-04-09T10:38:25.145Z,12.85
2023-04-09T10:39:25.122Z,12.76
2023-04-09T10:40:25.083Z,12.69
2023-04-09T10:41:25.076Z,12.67
2023-04-09T10:42:25.096Z,12.67
2023-04-09T10:43:25.067Z,12.80
2023-04-09T10:44:25.019Z,12.84
2023-04-09T10:45:25.013Z,12.80
2023-04-09T10:46:25.002Z,12.67
2023-04-09T10:47:24.993Z,12.58
2023-04-09T10:48:24.974Z,12.61
2023-04-09T10:49:24.963Z,12.69
2023-04-09T10:50:24.917Z,12.70
2023-04-09T10:51:24.908Z,12.76
2023-04-09T10:52:24.887Z,12.81
2023-04-09T10:53:24.963Z,12.77
2023-04-09T10:54:24.844Z,12.79
2023-04-09T10:55:24.869Z,12.76
2023-04-09T10:56:24.847Z,12.85
2023-04-09T10:57:24.794Z,12.80
2023-04-09T10:58:24.819Z,12.84
2023-04-09T10:59:24.753Z,12.87
2023-04-09T11:00:25.771Z,12.87
2023-04-09T11:01:24.799Z,13.01
2023-04-09T11:02:24.896Z,13.14
2023-04-09T11:03:24.932Z,13.39
2023-04-09T11:04:24.719Z,13.48
2023-04-09T11:05:24.726Z,13.51
2023-04-09T11:06:24.720Z,13.54
2023-04-09T11:07:24.659Z,13.48
2023-04-09T11:08:24.685Z,13.61
2023-04-09T11:09:24.621Z,13.50
2023-04-09T11:10:25.599Z,13.44
2023-04-09T11:11:24.580Z,13.38
2023-04-09T11:12:24.541Z,13.28
2023-04-09T11:13:24.552Z,13.14
2023-04-09T11:14:24.509Z,13.07
2023-04-09T11:15:24.543Z,12.88
2023-04-09T11:16:26.601Z,12.69
2023-04-09T11:17:24.473Z,12.67
2023-04-09T11:18:24.468Z,12.51
2023-04-09T11:19:24.424Z,12.38
2023-04-09T11:20:24.405Z,12.22
2023-04-09T11:21:24.395Z,12.30
2023-04-09T11:22:24.368Z,12.26
2023-04-09T11:23:24.402Z,12.23
2023-04-09T11:24:24.374Z,12.29
2023-04-09T11:25:24.323Z,12.34
2023-04-09T11:26:24.333Z,12.37
2023-04-09T11:27:24.289Z,12.29
2023-04-09T11:28:24.386Z,12.44
2023-04-09T11:29:24.285Z,12.30
2023-04-09T11:30:24.244Z,12.33
2023-04-09T11:31:24.289Z,12.21
2023-04-09T11:32:24.251Z,12.19
2023-04-09T11:33:24.186Z,12.25
2023-04-09T11:34:24.214Z,12.30
2023-04-09T11:35:24.171Z,12.30
2023-04-09T11:36:24.137Z,12.43
2023-04-09T11:37:24.131Z,12.43
2023-04-09T11:38:24.108Z,12.63
2023-04-09T11:39:24.129Z,12.63
2023-04-09T11:40:24.068Z,12.59
2023-04-09T11:41:24.056Z,12.63
2023-04-09T11:42:24.031Z,12.69
2023-04-09T11:43:24.025Z,12.91
2023-04-09T11:44:24.042Z,12.92
2023-04-09T11:45:23.997Z,12.95
2023-04-09T11:46:23.995Z,12.95
2023-04-09T11:47:23.979Z,12.88
2023-04-09T11:48:23.955Z,12.98
2023-04-09T11:49:23.965Z,12.92
2023-04-09T11:50:23.915Z,13.09
2023-04-09T11:51:23.876Z,12.96
2023-04-09T11:52:23.877Z,13.01
2023-04-09T11:53:23.863Z,13.12
2023-04-09T11:54:23.878Z,13.27
2023-04-09T11:55:23.819Z,13.43
2023-04-09T11:56:23.805Z,13.50
2023-04-09T11:57:23.788Z,13.62
2023-04-09T11:58:23.786Z,13.75
2023-04-09T11:59:23.783Z,13.65
2023-04-09T12:00:23.783Z,13.61
2023-04-09T12:01:23.820Z,13.76
2023-04-09T12:02:23.860Z,13.98
2023-04-09T12:03:23.925Z,14.02
2023-04-09T12:04:23.909Z,13.98
2023-04-09T12:05:23.657Z,14.11
2023-04-09T12:06:23.646Z,14.06
2023-04-09T12:07:23.649Z,14.19
2023-04-09T12:08:23.641Z,14.35
2023-04-09T12:09:23.644Z,14.42
2023-04-09T12:10:23.568Z,14.59
2023-04-09T12:11:23.558Z,14.74
2023-04-09T12:12:23.536Z,14.93
2023-04-09T12:13:23.524Z,14.82
2023-04-09T12:14:23.537Z,15.01
2023-04-09T12:15:23.489Z,15.15
2023-04-09T12:16:23.504Z,15.28
2023-04-09T12:17:23.465Z,15.19
2023-04-09T12:18:23.449Z,15.34
2023-04-09T12:19:23.453Z,15.22
2023-04-09T12:20:23.408Z,15.13
2023-04-09T12:21:23.374Z,15.22
2023-04-09T12:22:23.374Z,15.28
2023-04-09T12:23:23.341Z,15.09
2023-04-09T12:24:23.371Z,14.67
2023-04-09T12:25:23.312Z,14.53
2023-04-09T12:26:23.294Z,14.44
2023-04-09T12:27:23.302Z,14.57
2023-04-09T12:28:23.266Z,14.63
2023-04-09T12:29:23.284Z,14.75
2023-04-09T12:30:23.230Z,14.80
2023-04-09T12:31:23.240Z,14.82
2023-04-09T12:32:23.237Z,14.87
2023-04-09T12:33:23.200Z,14.74
2023-04-09T12:34:23.229Z,14.49
2023-04-09T12:35:23.196Z,14.45
2023-04-09T12:36:23.125Z,14.60
2023-04-09T12:37:23.119Z,14.56
2023-04-09T12:38:23.174Z,14.53
2023-04-09T12:39:23.116Z,14.66
2023-04-09T12:40:23.073Z,14.71
2023-04-09T12:41:23.041Z,14.83
2023-04-09T12:42:23.022Z,14.80
2023-04-09T12:43:23.016Z,14.83
2023-04-09T12:44:23.019Z,14.59
2023-04-09T12:45:22.991Z,14.63
2023-04-09T12:46:23.020Z,14.61
2023-04-09T12:47:22.962Z,14.60
2023-04-09T12:48:22.928Z,14.78
2023-04-09T12:49:22.946Z,14.56
2023-04-09T12:50:22.901Z,14.57
2023-04-09T12:51:22.869Z,14.60
2023-04-09T12:52:22.867Z,14.29
2023-04-09T12:53:22.830Z,14.24
2023-04-09T12:54:22.860Z,14.09
2023-04-09T12:55:22.846Z,14.20
2023-04-09T12:56:22.790Z,14.21
2023-04-09T12:57:22.771Z,14.24
2023-04-09T12:58:22.749Z,14.09
2023-04-09T12:59:22.761Z,14.12
2023-04-09T13:00:22.737Z,14.26
2023-04-09T13:01:22.755Z,14.23
2023-04-09T13:02:22.877Z,14.36
2023-04-09T13:03:22.847Z,14.39
2023-04-09T13:04:22.810Z,14.45
2023-04-09T13:05:22.655Z,14.45
2023-04-09T13:06:22.655Z,14.34
2023-04-09T13:07:22.608Z,14.34